HOURLY OBS INDEX

011

Eucla

CAIGUNA ASA

Site: 011023
Alt: 109.0m
327km W of EUCLA


  Time     Wind        Temp  DP   Baro     Rain since   Rain past  Vis(m), Cloud(base in m), Weather
  local        km/h                         9am  last   hr   10m    
Thu 13:00  ------/--- --------  1022.3   ----  ----  ----  ----   ----- 
Thu 13:30  ------/--- --------  1022.2   ----  ----  ----  ----   ----- 
Thu 14:00  ------/--- --------  1022.0   ----  ----  ----  ----   ----- 
Thu 14:30  ------/--- --------  1021.9   ----  ----  ----  ----   ----- 
Thu 15:00  ------/--- --------  1021.6   ----  ----  ----  ----   ----- 
Thu 15:30  ------/--- --------  1021.5   ----  ----  ----  ----   ----- 
Thu 16:00  ------/--- --------  1021.5   ----  ----  ----  ----   ----- 
Thu 16:00  ------/--- --------  1021.5   ----  ----  ----  ----   ----- 
Thu 16:30  ------/--- --------  1021.5   ----  ----  ----  ----   ----- 
Thu 17:00  ------/--- --------  1021.6   ----  ----  ----  ----   ----- 
Thu 17:30  ------/--- --------  1022.0   ----  ----  ----  ----   ----- 
Thu 18:00  ------/--- --------  1022.2   ----  ----  ----  ----   ----- 
Thu 18:00  ------/--- --------  1022.2   ----  ----  ----  ----   ----- 
Thu 18:00  ------/--- --------  1022.2   ----  ----  ----  ----   ----- 

EUCLA

Site: 011003
Alt: 93.1m
1km SW of EUCLA


  Time     Wind        Temp  DP   Baro     Rain since   Rain past  Vis(m), Cloud(base in m), Weather
  local        km/h                         9am  last   hr   10m    
Thu 13:00  SSE 22/ 35  20.3  8.6  1021.3    0.0   0.0   0.0   0.0   ----- 
Thu 13:30  SSE 24/ 37  19.0  7.8  1021.1    0.0   0.0   0.0   0.0   ----- 
Thu 14:00  SSE 24/ 37  19.2  7.0  1021.0    0.0   0.0   0.0   0.0   ----- 
Thu 14:30  SSE 24/ 37  18.4  7.2  1021.0    0.0   0.0   0.0   0.0   ----- 
Thu 15:00  SSE 20/ 35  18.1  7.2  1020.9    0.0   0.0   0.0   0.0   ----- 
Thu 15:30  SSE 24/ 37  18.3  7.1  1020.7    0.0   0.0   0.0   0.0   ----- 
Thu 16:00  SSE 26/ 35  18.0  7.4  1020.7    0.0   0.0   0.0   0.0   ----- 
Thu 16:00  SSE 26/ 35  18.0  7.4  1020.7    0.0   0.0  ----   0.0   ----- 
Thu 16:30  SSE 26/ 37  17.2  8.4  1020.7    0.0   0.0   0.0   0.0   ----- 
Thu 17:00  SSE 24/ 35  16.8  8.0  1020.8    0.0   0.0   0.0   0.0   ----- 
Thu 17:30  SSE 24/ 35  16.3  7.8  1021.1    0.0   0.0   0.0   0.0   ----- 
Thu 18:00  SSE 20/ 33  15.7  7.0  1021.3    0.0   0.0   0.0   0.0   ----- 
Thu 18:00  SSE 20/ 33  15.7  7.0  1021.3    0.0   0.0  ----   0.0   ----- 
Thu 18:00  SSE 20/ 33  15.7  7.0  1021.3    0.0   0.0  ----   0.0   ----- 

FORREST

Site: 011052
Alt: 159.0m
118km NW of EUCLA


  Time     Wind        Temp  DP   Baro     Rain since   Rain past  Vis(m), Cloud(base in m), Weather
  local        km/h                         9am  last   hr   10m    
Thu 13:00  SSE 26/ 41  23.5  8.8  1019.3    0.0   0.0   0.0   0.0   10000 
Thu 13:30  SSE 28/ 39  22.9  5.8  1019.2    0.0   0.0   0.0   0.0   10000 
Thu 14:00   SE 30/ 45  24.0  7.2  1018.9    0.0   0.0   0.0   0.0   10000 
Thu 14:14  SSE 28/ 46  23.0  5.4  1018.8    0.0   0.0  ----   0.0   10000 
Thu 14:30  SSE 30/ 43  22.4  5.4  1018.8    0.0   0.0   0.0   0.0   10000 
Thu 14:42  SSE 28/ 46  23.0  6.3  1018.7    0.0   0.0  ----   0.0   10000 
Thu 15:00  SSE 30/ 41  23.0  7.1  1018.7    0.0   0.0   0.0   0.0   10000 
Thu 15:30  SSE 32/ 41  22.4  6.6  1018.7    0.0   0.0   0.0   0.0   10000 
Thu 16:00  SSE 32/ 41  21.6  5.9  1018.9    0.0   0.0   0.0   0.0   10000 
Thu 16:00  SSE 32/ 41  21.6  5.9  1018.9    0.0   0.0  ----   0.0   10000 
Thu 16:30   SE 28/ 41  21.1  6.2  1019.0    0.0   0.0   0.0   0.0   10000 
Thu 17:00   SE 33/ 41  20.2  7.2  1019.5    0.0   0.0   0.0   0.0   10000 
Thu 17:30   SE 30/ 37  19.4  6.8  1019.9    0.0   0.0   0.0   0.0   10000 
Thu 18:00   SE 32/ 39  18.2  7.0  1020.1    0.0   0.0   0.0   0.0   10000 
Thu 18:00   SE 32/ 39  18.2  7.0  1020.1    0.0   0.0  ----   0.0   10000 
Thu 18:00   SE 32/ 39  18.2  7.0  1020.1    0.0   0.0  ----   0.0   10000 

RED ROCKS POINT

Site: 011053
Alt: 3.1m
141km WSW of EUCLA


  Time     Wind        Temp  DP   Baro     Rain since   Rain past  Vis(m), Cloud(base in m), Weather
  local        km/h                         9am  last   hr   10m    
Thu 13:00  SSE 28/ 35  19.5  9.7  1022.1    0.0   0.0   0.0   0.0   ----- 
Thu 13:30  SSE 30/ 37  18.8  9.3  1022.0    0.0   0.0   0.0   0.0   ----- 
Thu 14:00  SSE 28/ 33  19.5 10.0  1021.8    0.0   0.0   0.0   0.0   ----- 
Thu 14:30   SE 28/ 33  18.3  9.9  1021.5    0.0   0.0   0.0   0.0   ----- 
Thu 15:00   SE 28/ 35  17.9 10.8  1021.5    0.0   0.0   0.0   0.0   ----- 
Thu 15:30   SE 30/ 35  17.7 10.3  1021.5    0.0   0.0   0.0   0.0   ----- 
Thu 16:00   SE 28/ 35  17.6  9.5  1021.3    0.0   0.0   0.0   0.0   ----- 
Thu 16:00   SE 28/ 35  17.6  9.5  1021.3    0.0   0.0  ----   0.0   ----- 
Thu 16:30   SE 30/ 35  17.4  9.8  1021.3    0.0   0.0   0.0   0.0   ----- 
Thu 17:00   SE 28/ 35  17.3 10.2  1021.6    0.0   0.0   0.0   0.0   ----- 
Thu 17:30   SE 32/ 41  16.9  9.3  1021.8    0.0   0.0   0.0   0.0   ----- 
Thu 18:00   SE 32/ 39  17.0 10.8  1021.6    0.0   0.0   0.0   0.0   ----- 
Thu 18:00   SE 32/ 39  17.0 10.8  1021.6    0.0   0.0  ----   0.0   ----- 
Thu 18:00   SE 32/ 39  17.0 10.8  1021.6    0.0   0.0  ----   0.0   -----